Kezdőlap
METAR-TAF:

METAR-TAF

Repülőterek :

Plzeň, Csehország

földrajzi szélesség: 49-40-31N, földrajzi hosszúság: 13-16-29E, magasság: 362 m

Jelenlegi meteorológiai megfigyelések

A jelentés 31 perccel ezelõtt készült, 20:00 UTC
Nyugat-délnyugati szél 10 kt, dél-délnyugati és nyugat-északnyugati között változik
Hőmérséklet 11°C
Páratartalom 37%
Légköri nyomás 1021 hPa
Látótávolság 10 km, vagy több
Borult 4800 lábon

METAR: LKLN 222000Z AUTO 24010KT 210V300 9999 OVC048 11/M03 Q1021

Idő: 21:31 (20:31 UTC)


TAF: hiányzik

Meteorológiai megfigyelések és előrejelzések több, mint 4000 repülőtéren (METAR és TAF jelentéseket).

A térképen piros és sárga pontok jelzik az elérhető meteorológiai állomásokat.

Mozgassa az egeret a pont fölött, hogy megjelenjen az állomás neve.

Azután kattintson az időjárási megfigyelések és előrejelzések megtekintéséhez.

A térkép megváltoztatása: kattintson a fekete keresztel jelölt zöld gombra ráközelítéshez, a vonallal jelölt zöld gombra távolításhoz, vagy a zöld nyilakra a szomszédos térképek eléréséhez.


METAR-TAF: